Map

Track Data

SID SEASON NUMBER BASIN SUBBASIN NAME ISO_TIME NATURE LAT LON WMO_WIND WMO_PRES WMO_AGENCY TRACK_TYPE DIST2LAND LANDFALL IFLAG USA_AGENCY USA_ATCF_ID USA_LAT USA_LON USA_RECORD USA_STATUS USA_WIND USA_PRES USA_SSHS USA_R34_NE USA_R34_SE USA_R34_SW USA_R34_NW USA_R50_NE USA_R50_SE USA_R50_SW USA_R50_NW USA_R64_NE USA_R64_SE USA_R64_SW USA_R64_NW USA_POCI USA_ROCI USA_RMW USA_EYE TOKYO_LAT TOKYO_LON TOKYO_GRADE TOKYO_WIND TOKYO_PRES TOKYO_R50_DIR TOKYO_R50_LONG TOKYO_R50_SHORT TOKYO_R30_DIR TOKYO_R30_LONG TOKYO_R30_SHORT TOKYO_LAND CMA_LAT CMA_LON CMA_CAT CMA_WIND CMA_PRES HKO_LAT HKO_LON HKO_CAT HKO_WIND HKO_PRES NEWDELHI_LAT NEWDELHI_LON NEWDELHI_GRADE NEWDELHI_WIND NEWDELHI_PRES NEWDELHI_CI NEWDELHI_DP NEWDELHI_POCI REUNION_LAT REUNION_LON REUNION_TYPE REUNION_WIND REUNION_PRES REUNION_TNUM REUNION_CI REUNION_RMW REUNION_R34_NE REUNION_R34_SE REUNION_R34_SW REUNION_R34_NW REUNION_R50_NE REUNION_R50_SE REUNION_R50_SW REUNION_R50_NW REUNION_R64_NE REUNION_R64_SE REUNION_R64_SW REUNION_R64_NW BOM_LAT BOM_LON BOM_TYPE BOM_WIND BOM_PRES BOM_TNUM BOM_CI BOM_RMW BOM_R34_NE BOM_R34_SE BOM_R34_SW BOM_R34_NW BOM_R50_NE BOM_R50_SE BOM_R50_SW BOM_R50_NW BOM_R64_NE BOM_R64_SE BOM_R64_SW BOM_R64_NW BOM_ROCI BOM_POCI BOM_EYE BOM_POS_METHOD BOM_PRES_METHOD NADI_LAT NADI_LON NADI_CAT NADI_WIND NADI_PRES WELLINGTON_LAT WELLINGTON_LON WELLINGTON_WIND WELLINGTON_PRES DS824_LAT DS824_LON DS824_STAGE DS824_WIND DS824_PRES TD9636_LAT TD9636_LON TD9636_STAGE TD9636_WIND TD9636_PRES TD9635_LAT TD9635_LON TD9635_WIND TD9635_PRES TD9635_ROCI NEUMANN_LAT NEUMANN_LON NEUMANN_CLASS NEUMANN_WIND NEUMANN_PRES MLC_LAT MLC_LON MLC_CLASS MLC_WIND MLC_PRES USA_GUST BOM_GUST BOM_GUST_PER REUNION_GUST REUNION_GUST_PER USA_SEAHGT USA_SEARAD_NE USA_SEARAD_SE USA_SEARAD_SW USA_SEARAD_NW STORM_SPEED STORM_DIR
1897060S15066 1897 10 SI MM NOT_NAMED 1897-03-01 06:00:00 NR -14.8000 66.3000 spur-split 1087 1057 __________O___ -1 -14.8000 66.3000 7 7 226
1897060S15066 1897 10 SI MM NOT_NAMED 1897-03-01 09:00:00 NR -15.0423 66.0407 spur-split 1048 1012 __________P___ -1 -15.0423 66.0407 7 7 226
1897060S15066 1897 10 SI MM NOT_NAMED 1897-03-01 12:00:00 NR -15.2875 65.7750 spur-split 1012 972 __________P___ -1 -15.2875 65.7750 7 7 227
1897060S15066 1897 10 SI MM NOT_NAMED 1897-03-01 15:00:00 NR -15.5390 65.4967 spur-split 972 927 __________P___ -1 -15.5390 65.4967 7 8 227
1897060S15066 1897 10 SI MM NOT_NAMED 1897-03-01 18:00:00 NR -15.8000 65.2000 spur-split 927 882 __________O___ -1 -15.8000 65.2000 7 8 228
1897060S15066 1897 10 SI MM NOT_NAMED 1897-03-01 21:00:00 NR -16.0720 64.8863 spur-split 882 843 __________P___ -1 -16.0720 64.8863 7 8 227
1897060S15066 1897 10 SI MM NOT_NAMED 1897-03-02 00:00:00 NR -16.3502 64.5882 spur-split 837 808 __________P___ -1 -16.3502 64.5882 7 8 223
1897060S15066 1897 10 SI MM NOT_NAMED 1897-03-02 03:00:00 NR -16.6282 64.3458 spur-split 799 773 __________P___ -1 -16.6282 64.3458 7 7 214
1897060S15066 1897 10 SI MM NOT_NAMED 1897-03-02 06:00:00 NR -16.9000 64.2000 spur-split 773 757 __________O___ -1 -16.9000 64.2000 7 6 194
1897060S15066 1897 10 SI MM NOT_NAMED 1897-03-02 09:00:00 NR -17.1774 64.2027 spur-split 757 752 __________P___ -1 -17.1774 64.2027 7 6 170
1897060S15066 1897 10 SI MM NOT_NAMED 1897-03-02 12:00:00 NR -17.4449 64.3016 spur-split 756 752 __________P___ -1 -17.4449 64.3016 7 6 155
1897060S15066 1897 10 SI MM NOT_NAMED 1897-03-02 15:00:00 NR -17.6900 64.4497 spur-split 752 752 __________P___ -1 -17.6900 64.4497 7 5 148
1897060S15066 1897 10 SI MM NOT_NAMED 1897-03-02 18:00:00 NR -17.9000 64.6000 spur-split 763 759 __________O___ -1 -17.9000 64.6000 7 4 149
1897060S15066 1897 10 SI MM NOT_NAMED 1897-03-02 21:00:00 NR -18.0324 64.6623 spur-split 769 765 __________P___ -1 -18.0324 64.6623 7 3 155
1897060S15066 1897 10 SI MM NOT_NAMED 1897-03-03 00:00:00 NR -18.1348 64.7207 spur-split 765 761 __________P___ -1 -18.1348 64.7207 7 2 149
1897060S15066 1897 10 SI MM NOT_NAMED 1897-03-03 03:00:00 NR -18.2449 64.7936 spur-split 771 767 __________P___ -1 -18.2449 64.7936 7 3 147
1897060S15066 1897 10 SI MM NOT_NAMED 1897-03-03 06:00:00 NR -18.4000 64.9000 spur-split 774 771 __________O___ -1 -18.4000 64.9000 7 5 147
1897060S15066 1897 10 SI MM NOT_NAMED 1897-03-03 09:00:00 NR -18.6539 65.0718 spur-split 785 783 __________P___ -1 -18.6539 65.0718 7 7 147
1897060S15066 1897 10 SI MM NOT_NAMED 1897-03-03 12:00:00 NR -18.9552 65.2770 spur-split 798 796 __________P___ -1 -18.9552 65.2770 7 7 147
1897060S15066 1897 10 SI MM NOT_NAMED 1897-03-03 15:00:00 NR -19.2789 65.4937 spur-split 813 811 __________P___ -1 -19.2789 65.4937 7 8 148
1897060S15066 1897 10 SI MM NOT_NAMED 1897-03-03 18:00:00 NR -19.6000 65.7000 spur-split 829 828 __________O___ -1 -19.6000 65.7000 7 7 151
1897060S15066 1897 10 SI MM NOT_NAMED 1897-03-03 21:00:00 NR -19.8657 65.8408 spur-split 836 836 __________P___ -1 -19.8657 65.8408 7 6 154
1897060S15066 1897 10 SI MM NOT_NAMED 1897-03-04 00:00:00 NR -20.1271 65.9712 spur-split 855 854 __________P___ -1 -20.1271 65.9712 7 6 154
1897060S15066 1897 10 SI MM NOT_NAMED 1897-03-04 03:00:00 NR -20.4000 66.1160 spur-split 865 865 __________P___ -1 -20.4000 66.1160 7 7 152
1897060S15066 1897 10 SI MM NOT_NAMED 1897-03-04 06:00:00 NR -20.7000 66.3000 spur-split 886 886 __________O___ -1 -20.7000 66.3000 7 8 147
1897060S15066 1897 10 SI MM NOT_NAMED 1897-03-04 09:00:00 NR -21.0424 66.5607 spur-split 918 918 __________P___ -1 -21.0424 66.5607 7 9 144
1897060S15066 1897 10 SI MM NOT_NAMED 1897-03-04 12:00:00 NR -21.4128 66.8622 spur-split 953 953 __________P___ -1 -21.4128 66.8622 7 10 143
1897060S15066 1897 10 SI MM NOT_NAMED 1897-03-04 15:00:00 NR -21.8018 67.1827 spur-split 989 989 __________P___ -1 -21.8018 67.1827 7 10 143
1897060S15066 1897 10 SI MM NOT_NAMED 1897-03-04 18:00:00 NR -22.2000 67.5000 spur-split 1027 1027 __________O___ -1 -22.2000 67.5000 7 10 145
1897060S15066 1897 10 SI MM NOT_NAMED 1897-03-04 21:00:00 NR -22.5999 67.7966 spur-split 1065 1065 __________P___ -1 -22.5999 67.7966 7 10 146
1897060S15066 1897 10 SI MM NOT_NAMED 1897-03-05 00:00:00 NR -23.0000 68.0742 spur-split 1105 1105 __________P___ -1 -23.0000 68.0742 7 9 148
1897060S15066 1897 10 SI MM NOT_NAMED 1897-03-05 03:00:00 NR -23.4001 68.3398 spur-split 1137 1137 __________P___ -1 -23.4001 68.3398 7 9 149
1897060S15066 1897 10 SI MM NOT_NAMED 1897-03-05 06:00:00 NR -23.8000 68.6000 spur-split 1179 __________O___ -1 -23.8000 68.6000 7 9 149

About IBTrACS Database

This database is a web-friendly format of International Best Track Archive for Climate Stewardship (IBTrACS), a global best track data archive curated by NOAA dating back to 1842.

Updated: 2021-10-08